Time;durP1;ratioP1;P1;durP2;ratioP2;P2;SDS_P1;SDS_P2;PMS_P1;PMS_P2;Temp;Humidity;BMP_temperature;BMP_pressure;BME280_temperature;BME280_humidity;BME280_pressure;Samples;Min_cycle;Max_cycle;Signal;HPM_P1;HPM_P2
2023/10/28 00:01:11;;;;;;;49.80;26.52;;;15.20;92.60;;;;;;6185095;23;20449;-88
2023/10/28 00:03:36;;;;;;;44.42;26.00;;;15.20;92.60;;;;;;6185044;23;20024;-88
2023/10/28 00:06:02;;;;;;;46.95;26.77;;;15.10;92.60;;;;;;6184795;23;20455;-88
2023/10/28 00:08:28;;;;;;;48.00;26.33;;;15.10;92.60;;;;;;6185182;23;20437;-88
2023/10/28 00:10:54;;;;;;;45.22;25.05;;;15.10;92.60;;;;;;6185104;23;20048;-89
2023/10/28 00:13:19;;;;;;;47.97;26.23;;;15.10;92.60;;;;;;6185305;23;20353;-88
2023/10/28 00:15:45;;;;;;;46.53;25.08;;;15.10;92.60;;;;;;6184762;23;20020;-88
2023/10/28 00:18:10;;;;;;;57.30;29.25;;;15.10;92.60;;;;;;6160504;23;20071;-88
2023/10/28 00:20:37;;;;;;;46.45;26.48;;;15.20;92.60;;;;;;6185118;23;20019;-88
2023/10/28 00:23:04;;;;;;;55.10;29.15;;;15.20;92.60;;;;;;6160042;23;20275;-88
2023/10/28 00:25:31;;;;;;;54.00;29.15;;;15.20;92.60;;;;;;6160429;23;20026;-89
2023/10/28 00:27:57;;;;;;;50.10;28.15;;;15.20;92.60;;;;;;6160942;23;20059;-88
2023/10/28 00:30:24;;;;;;;57.17;29.52;;;15.20;92.60;;;;;;6160356;23;20016;-88
2023/10/28 00:32:51;;;;;;;44.13;25.70;;;15.20;92.60;;;;;;6160468;23;20009;-88
2023/10/28 00:35:16;;;;;;;61.08;29.65;;;15.20;92.60;;;;;;6184934;23;20016;-88
2023/10/28 00:37:42;;;;;;;45.88;26.92;;;15.20;92.60;;;;;;6160011;23;20012;-88
2023/10/28 00:40:08;;;;;;;50.72;28.45;;;15.20;92.60;;;;;;6185019;23;20017;-88
2023/10/28 00:42:38;;;;;;;58.40;29.98;;;15.20;92.60;;;;;;6160006;23;20016;-88
2023/10/28 00:45:11;;;;;;;58.15;29.73;;;15.20;92.60;;;;;;6160199;23;20026;-89
2023/10/28 00:47:38;;;;;;;61.60;31.02;;;15.10;92.50;;;;;;6185413;23;20048;-89
2023/10/28 00:50:09;;;;;;;51.30;29.40;;;15.10;92.50;;;;;;6159850;23;20946;-88
2023/10/28 00:52:37;;;;;;;45.22;26.20;;;15.10;92.50;;;;;;6160234;23;20044;-88
2023/10/28 00:55:03;;;;;;;44.30;26.35;;;15.10;92.50;;;;;;6184919;23;20546;-88
2023/10/28 00:57:31;;;;;;;42.03;25.65;;;15.10;92.50;;;;;;6184837;23;20017;-88
2023/10/28 00:59:59;;;;;;;47.25;27.02;;;15.10;92.60;;;;;;6159561;23;20035;-89
2023/10/28 01:02:24;;;;;;;46.35;26.30;;;15.20;92.60;;;;;;6184934;23;20025;-88
2023/10/28 01:04:51;;;;;;;49.85;28.02;;;15.20;92.50;;;;;;6159836;23;20023;-88
2023/10/28 01:07:18;;;;;;;51.40;28.42;;;15.20;92.50;;;;;;6159653;23;20099;-89
2023/10/28 01:09:45;;;;;;;67.07;30.67;;;15.20;92.50;;;;;;6159982;23;20372;-88
2023/10/28 01:12:13;;;;;;;59.92;31.75;;;15.30;92.50;;;;;;6159984;23;20016;-89
2023/10/28 01:14:40;;;;;;;56.45;31.20;;;15.20;92.50;;;;;;6159223;23;20020;-88
2023/10/28 01:17:06;;;;;;;67.63;32.50;;;15.20;92.50;;;;;;6159648;23;20016;-88
2023/10/28 01:19:34;;;;;;;50.55;29.15;;;15.20;92.60;;;;;;6160383;23;20031;-88
2023/10/28 01:22:00;;;;;;;64.93;33.65;;;15.20;92.60;;;;;;6159669;23;20070;-88
2023/10/28 01:24:28;;;;;;;76.80;34.70;;;15.10;92.70;;;;;;6184449;23;20098;-89
2023/10/28 01:26:54;;;;;;;43.03;25.58;;;15.10;92.70;;;;;;6184210;23;20017;-89
2023/10/28 01:29:20;;;;;;;62.08;32.03;;;15.10;92.70;;;;;;6184653;23;20448;-88
2023/10/28 01:31:47;;;;;;;65.97;32.22;;;15.10;92.60;;;;;;6160010;23;20092;-89
2023/10/28 01:34:12;;;;;;;63.28;33.35;;;15.10;92.60;;;;;;6158941;23;20382;-89
2023/10/28 01:36:38;;;;;;;62.88;30.25;;;15.00;92.70;;;;;;6184690;23;20392;-87
2023/10/28 01:39:04;;;;;;;64.70;33.85;;;15.10;92.70;;;;;;6159459;23;20020;-89
2023/10/28 01:41:30;;;;;;;70.20;33.45;;;15.10;92.70;;;;;;6184632;23;20012;-89
2023/10/28 01:43:55;;;;;;;73.47;34.22;;;15.10;92.70;;;;;;6159399;23;20517;-89
2023/10/28 01:46:21;;;;;;;77.25;35.42;;;15.10;92.70;;;;;;6159721;23;20009;-88
2023/10/28 01:48:47;;;;;;;57.22;30.98;;;15.10;92.70;;;;;;6159143;23;20012;-88
2023/10/28 01:51:13;;;;;;;77.72;33.45;;;15.10;92.70;;;;;;6184392;23;20434;-89
2023/10/28 01:53:39;;;;;;;71.07;33.85;;;15.10;92.70;;;;;;6159390;23;20020;-88
2023/10/28 01:56:05;;;;;;;65.10;31.77;;;15.10;92.60;;;;;;6159814;23;20095;-88
2023/10/28 01:58:32;;;;;;;60.53;31.08;;;15.10;92.60;;;;;;6158621;23;20017;-88
2023/10/28 02:00:58;;;;;;;47.00;27.13;;;15.20;92.60;;;;;;6159564;23;20024;-89
2023/10/28 02:03:24;;;;;;;58.83;31.95;;;15.10;92.50;;;;;;6159506;23;20379;-88
2023/10/28 02:05:50;;;;;;;57.33;31.13;;;15.10;92.50;;;;;;6184334;23;20020;-88
2023/10/28 02:08:16;;;;;;;51.58;28.42;;;15.10;92.50;;;;;;6183795;23;20012;-88
2023/10/28 02:10:42;;;;;;;46.00;26.02;;;15.10;92.50;;;;;;6159486;23;20279;-88
2023/10/28 02:13:07;;;;;;;57.80;30.63;;;15.10;92.50;;;;;;6159492;23;20395;-88
2023/10/28 02:15:33;;;;;;;59.65;31.35;;;15.10;92.40;;;;;;6159627;23;20021;-89
2023/10/28 02:17:59;;;;;;;59.00;30.48;;;15.10;92.40;;;;;;6158811;23;20047;-88
2023/10/28 02:20:25;;;;;;;58.55;30.48;;;15.10;92.40;;;;;;6159519;23;20468;-89
2023/10/28 02:22:50;;;;;;;47.38;27.23;;;15.10;92.40;;;;;;6183975;23;20016;-88
2023/10/28 02:25:16;;;;;;;56.20;30.02;;;15.10;92.40;;;;;;6159507;23;20502;-89
2023/10/28 02:27:42;;;;;;;52.88;30.52;;;15.00;92.40;;;;;;6159258;23;20017;-88
2023/10/28 02:30:09;;;;;;;37.30;23.92;;;15.00;92.40;;;;;;6158972;23;20020;-88
2023/10/28 02:32:36;;;;;;;51.90;29.90;;;14.90;92.40;;;;;;6159253;23;20024;-88
2023/10/28 02:35:02;;;;;;;54.47;28.70;;;14.90;92.40;;;;;;6159760;23;20048;-89
2023/10/28 02:37:29;;;;;;;54.92;29.58;;;14.90;92.40;;;;;;6159179;23;20384;-87
2023/10/28 02:39:55;;;;;;;43.08;24.25;;;14.90;92.40;;;;;;6159281;23;20017;-88
2023/10/28 02:42:22;;;;;;;33.38;21.70;;;14.90;92.40;;;;;;6184307;23;20100;-89
2023/10/28 02:44:48;;;;;;;48.08;28.30;;;14.90;92.50;;;;;;6158468;23;20039;-89
2023/10/28 02:47:15;;;;;;;49.15;27.77;;;14.90;92.50;;;;;;6159725;23;20016;-88
2023/10/28 02:49:41;;;;;;;38.45;23.45;;;14.80;92.40;;;;;;6159387;23;20020;-88
2023/10/28 02:52:07;;;;;;;50.58;29.05;;;14.80;92.40;;;;;;6184345;23;20027;-89
2023/10/28 02:54:33;;;;;;;52.53;27.90;;;14.80;92.40;;;;;;6159345;23;20586;-89
2023/10/28 02:57:00;;;;;;;55.03;27.50;;;14.80;92.40;;;;;;6184477;23;20481;-89
2023/10/28 02:59:27;;;;;;;40.22;25.35;;;14.80;92.40;;;;;;6184123;23;20468;-89
2023/10/28 03:01:53;;;;;;;42.67;24.90;;;14.80;92.40;;;;;;6159433;23;20017;-89
2023/10/28 03:04:19;;;;;;;46.33;27.13;;;14.80;92.40;;;;;;6183933;23;20449;-89
2023/10/28 03:06:45;;;;;;;46.28;26.63;;;14.80;92.40;;;;;;6183673;23;20028;-89
2023/10/28 03:09:11;;;;;;;43.88;26.23;;;14.80;92.40;;;;;;6159396;23;20017;-89
2023/10/28 03:11:37;;;;;;;39.95;24.02;;;14.80;92.40;;;;;;6159805;23;20340;-88
2023/10/28 03:14:04;;;;;;;35.95;22.85;;;14.80;92.30;;;;;;6159408;23;20482;-89
2023/10/28 03:16:30;;;;;;;40.13;23.92;;;14.80;92.60;;;;;;6184676;23;20020;-89
2023/10/28 03:18:56;;;;;;;47.22;26.60;;;14.80;92.40;;;;;;6183721;23;20340;-89
2023/10/28 03:21:22;;;;;;;34.35;22.77;;;14.80;92.40;;;;;;6183897;23;20095;-89
2023/10/28 03:23:47;;;;;;;45.13;23.55;;;14.80;92.40;;;;;;6183752;23;20120;-89
2023/10/28 03:26:13;;;;;;;44.40;26.35;;;14.80;92.40;;;;;;6159374;23;20008;-89
2023/10/28 03:28:39;;;;;;;51.63;28.17;;;14.80;92.40;;;;;;6183882;23;20017;-89
2023/10/28 03:31:09;;;;;;;46.47;26.17;;;14.80;92.30;;;;;;6160619;23;20044;-89
2023/10/28 03:33:39;;;;;;;43.85;25.73;;;14.80;92.30;;;;;;6161239;23;20056;-89
2023/10/28 03:36:05;;;;;;;40.45;25.42;;;14.80;92.30;;;;;;6185836;23;20091;-89
2023/10/28 03:38:33;;;;;;;51.63;27.58;;;14.80;92.40;;;;;;6185376;23;20428;-89
2023/10/28 03:40:59;;;;;;;34.33;23.08;;;14.70;92.40;;;;;;6161083;23;20027;-89
2023/10/28 03:43:24;;;;;;;32.28;22.58;;;14.70;92.40;;;;;;6212344;23;20013;-89
2023/10/28 03:45:50;;;;;;;40.20;24.58;;;14.80;92.40;;;;;;6185247;23;20125;-90
2023/10/28 03:48:16;;;;;;;44.05;24.85;;;14.80;92.40;;;;;;6185517;23;20353;-89
2023/10/28 03:50:41;;;;;;;38.45;23.90;;;14.70;92.40;;;;;;6160871;23;20013;-89
2023/10/28 03:53:07;;;;;;;35.40;23.00;;;14.70;92.40;;;;;;6161046;23;20017;-88
2023/10/28 03:55:33;;;;;;;51.53;26.20;;;14.70;92.50;;;;;;6185268;23;20019;-89
2023/10/28 03:57:58;;;;;;;33.17;22.15;;;14.70;92.50;;;;;;6185328;23;20020;-90
2023/10/28 04:00:24;;;;;;;41.47;23.13;;;14.70;92.50;;;;;;6185174;23;20019;-90
2023/10/28 04:02:50;;;;;;;49.17;26.33;;;14.70;92.50;;;;;;6185567;23;20099;-89
2023/10/28 04:05:16;;;;;;;41.65;24.80;;;14.80;92.50;;;;;;6185335;23;20353;-89
2023/10/28 04:07:42;;;;;;;46.30;25.08;;;14.80;92.40;;;;;;6184898;23;20051;-88
2023/10/28 04:10:07;;;;;;;45.50;25.90;;;14.80;92.50;;;;;;6185562;23;20396;-90
2023/10/28 04:12:33;;;;;;;47.33;25.83;;;14.80;92.50;;;;;;6185634;23;20052;-89
2023/10/28 04:14:59;;;;;;;35.47;22.15;;;14.80;92.50;;;;;;6185292;23;20023;-89
2023/10/28 04:17:26;;;;;;;42.17;24.00;;;14.80;92.50;;;;;;6185703;23;20016;-88
2023/10/28 04:19:51;;;;;;;34.65;21.52;;;14.80;92.50;;;;;;6160263;23;20019;-89
2023/10/28 04:22:17;;;;;;;39.22;22.90;;;14.80;92.50;;;;;;6160945;23;20068;-90
2023/10/28 04:24:43;;;;;;;40.53;23.17;;;14.80;92.60;;;;;;6185969;23;20017;-88
2023/10/28 04:27:08;;;;;;;40.17;23.98;;;14.80;92.50;;;;;;6185355;23;20084;-89
2023/10/28 04:29:34;;;;;;;36.28;22.25;;;14.80;92.50;;;;;;6185259;23;20052;-89
2023/10/28 04:32:00;;;;;;;45.90;25.25;;;14.80;92.50;;;;;;6185725;23;20020;-90
2023/10/28 04:34:26;;;;;;;42.65;24.15;;;14.80;92.60;;;;;;6184945;23;20016;-89
2023/10/28 04:36:53;;;;;;;41.17;23.02;;;14.80;92.60;;;;;;6185314;23;20456;-89
2023/10/28 04:39:18;;;;;;;38.35;22.88;;;14.80;92.60;;;;;;6185472;23;20016;-89
2023/10/28 04:41:44;;;;;;;47.78;24.23;;;14.80;92.60;;;;;;6160126;23;20070;-88
2023/10/28 04:44:13;;;;;;;34.17;20.95;;;14.80;92.60;;;;;;6160410;23;20017;-89
2023/10/28 04:46:40;;;;;;;34.47;22.00;;;14.70;92.60;;;;;;6160547;23;20214;-89
2023/10/28 04:49:06;;;;;;;37.42;22.58;;;14.80;92.60;;;;;;6159658;23;20017;-89
2023/10/28 04:51:31;;;;;;;33.95;21.60;;;14.80;92.60;;;;;;6160636;23;20020;-89
2023/10/28 04:53:57;;;;;;;35.85;21.95;;;14.80;92.60;;;;;;6185435;23;20016;-88
2023/10/28 04:56:23;;;;;;;40.97;22.05;;;14.80;92.80;;;;;;6160268;23;20016;-89
2023/10/28 04:58:49;;;;;;;36.40;20.92;;;14.70;92.60;;;;;;6160183;23;20031;-89
2023/10/28 05:01:14;;;;;;;41.35;22.02;;;14.70;92.60;;;;;;6159789;23;20510;-89
2023/10/28 05:03:40;;;;;;;34.70;21.45;;;14.70;92.70;;;;;;6185341;23;20012;-89
2023/10/28 05:06:09;;;;;;;39.88;22.27;;;14.70;92.80;;;;;;6184938;23;20016;-88
2023/10/28 05:08:35;;;;;;;37.20;21.67;;;14.70;92.80;;;;;;6159831;23;20017;-89
2023/10/28 05:11:01;;;;;;;36.47;22.33;;;14.70;92.80;;;;;;6160331;23;20087;-88
2023/10/28 05:13:27;;;;;;;39.05;22.50;;;14.70;92.80;;;;;;6159077;23;20432;-89
2023/10/28 05:15:53;;;;;;;35.75;22.00;;;14.70;92.80;;;;;;6184785;23;20023;-88
2023/10/28 05:18:19;;;;;;;35.88;21.02;;;14.70;92.80;;;;;;6184820;23;20048;-89
2023/10/28 05:20:45;;;;;;;37.90;21.40;;;14.70;92.90;;;;;;6160323;23;20028;-87
2023/10/28 05:23:10;;;;;;;33.50;21.15;;;14.70;92.90;;;;;;6159351;23;20025;-89
2023/10/28 05:25:36;;;;;;;34.72;19.80;;;14.70;92.90;;;;;;6160189;23;20009;-89
2023/10/28 05:28:01;;;;;;;38.15;21.77;;;14.70;92.90;;;;;;6160215;23;20016;-89
2023/10/28 05:30:27;;;;;;;32.90;20.80;;;14.80;92.90;;;;;;6184852;23;20023;-89
2023/10/28 05:32:52;;;;;;;41.78;21.80;;;14.80;92.90;;;;;;6159771;23;20354;-88
2023/10/28 05:35:18;;;;;;;40.85;21.20;;;14.90;92.90;;;;;;6184882;23;20013;-89
2023/10/28 05:37:44;;;;;;;33.50;17.90;;;14.90;92.80;;;;;;6183975;23;20012;-89
2023/10/28 05:40:10;;;;;;;40.75;22.27;;;14.90;92.70;;;;;;6159898;23;20017;-89
2023/10/28 05:42:37;;;;;;;38.38;21.75;;;14.90;92.70;;;;;;6159387;23;20444;-87
2023/10/28 05:45:03;;;;;;;31.13;20.15;;;15.00;92.70;;;;;;6160341;23;20025;-89
2023/10/28 05:47:29;;;;;;;40.80;22.20;;;14.90;92.70;;;;;;6186042;23;20021;-90
2023/10/28 05:49:55;;;;;;;41.58;21.92;;;14.90;92.70;;;;;;6161482;23;20096;-89
2023/10/28 05:52:20;;;;;;;33.60;20.40;;;15.00;92.80;;;;;;6185345;23;20100;-89
2023/10/28 05:54:46;;;;;;;33.50;20.50;;;15.00;92.70;;;;;;6185462;23;20016;-88
2023/10/28 05:57:12;;;;;;;31.35;19.20;;;15.00;92.70;;;;;;6160537;23;20017;-88
2023/10/28 05:59:39;;;;;;;37.20;20.58;;;15.00;93.00;;;;;;6160283;23;20383;-89
2023/10/28 06:02:05;;;;;;;29.35;17.13;;;14.90;92.80;;;;;;6160112;23;20016;-87
2023/10/28 06:04:31;;;;;;;29.13;17.38;;;14.90;92.80;;;;;;6185029;23;20048;-88
2023/10/28 06:06:57;;;;;;;27.92;17.90;;;14.90;92.80;;;;;;6185014;23;20368;-90
2023/10/28 06:09:23;;;;;;;31.13;17.98;;;14.90;92.90;;;;;;6160440;23;20372;-87
2023/10/28 06:11:50;;;;;;;29.40;17.05;;;14.80;92.90;;;;;;6160022;23;20024;-88
2023/10/28 06:14:16;;;;;;;30.23;18.02;;;14.90;93.00;;;;;;6160128;23;20016;-88
2023/10/28 06:16:43;;;;;;;24.13;15.77;;;14.80;93.00;;;;;;6160038;23;20029;-89
2023/10/28 06:19:10;;;;;;;25.05;15.27;;;14.80;93.00;;;;;;6160771;23;20020;-89
2023/10/28 06:21:36;;;;;;;23.27;15.38;;;14.80;93.00;;;;;;6160464;23;20017;-88
2023/10/28 06:24:02;;;;;;;28.08;16.17;;;14.80;93.00;;;;;;6184796;23;20373;-87
2023/10/28 06:26:28;;;;;;;24.17;15.00;;;14.80;93.10;;;;;;6160517;23;20056;-88
2023/10/28 06:28:54;;;;;;;24.40;14.88;;;14.80;93.10;;;;;;6159790;23;20419;-89
2023/10/28 06:31:20;;;;;;;20.27;13.98;;;14.80;93.10;;;;;;6160464;23;20013;-88
2023/10/28 06:33:46;;;;;;;20.48;13.82;;;14.80;93.10;;;;;;6185198;23;20321;-89
2023/10/28 06:36:11;;;;;;;21.90;14.18;;;14.80;93.10;;;;;;6160197;23;20051;-88
2023/10/28 06:38:37;;;;;;;25.25;14.30;;;14.80;93.10;;;;;;6160520;23;20009;-87
2023/10/28 06:41:11;;;;;;;17.48;12.07;;;14.80;93.10;;;;;;6184755;23;20123;-88
2023/10/28 06:43:37;;;;;;;18.63;11.52;;;14.70;93.10;;;;;;6160112;23;20021;-88
2023/10/28 06:46:04;;;;;;;20.38;12.68;;;14.80;93.10;;;;;;6185074;23;20029;-89
2023/10/28 06:48:30;;;;;;;21.33;12.82;;;14.80;93.10;;;;;;6160469;23;20344;-89
2023/10/28 06:50:56;;;;;;;19.23;11.63;;;14.80;93.00;;;;;;6185395;23;20099;-88
2023/10/28 06:53:21;;;;;;;18.98;12.45;;;14.80;93.00;;;;;;6184977;23;20066;-89
2023/10/28 06:55:48;;;;;;;17.27;12.23;;;14.80;93.00;;;;;;6160099;23;20079;-89
2023/10/28 06:58:15;;;;;;;18.15;11.57;;;14.80;93.00;;;;;;6184916;23;20063;-89
2023/10/28 07:00:41;;;;;;;15.15;10.75;;;14.80;93.00;;;;;;6160674;23;20021;-88
2023/10/28 07:03:07;;;;;;;12.20;8.65;;;14.80;93.00;;;;;;6185561;23;20036;-89
2023/10/28 07:05:32;;;;;;;12.80;9.25;;;14.90;93.10;;;;;;6161777;23;20121;-89
2023/10/28 07:07:58;;;;;;;15.02;11.15;;;14.90;93.00;;;;;;6162181;23;20348;-88
2023/10/28 07:10:23;;;;;;;15.43;10.27;;;14.90;92.90;;;;;;6186990;23;20407;-89
2023/10/28 07:12:52;;;;;;;19.95;11.85;;;14.90;92.90;;;;;;6162219;23;20048;-89
2023/10/28 07:15:18;;;;;;;15.90;10.13;;;15.00;92.90;;;;;;6161812;23;20067;-89
2023/10/28 07:17:43;;;;;;;16.67;10.27;;;15.00;92.80;;;;;;6187202;23;20052;-90
2023/10/28 07:20:09;;;;;;;11.60;8.60;;;15.00;92.80;;;;;;6162445;23;20024;-89
2023/10/28 07:22:35;;;;;;;14.88;9.88;;;15.00;92.80;;;;;;6186162;23;20017;-90
2023/10/28 07:25:01;;;;;;;16.65;10.02;;;15.00;92.80;;;;;;6185986;23;20066;-90
2023/10/28 07:27:27;;;;;;;16.65;10.32;;;15.00;92.70;;;;;;6160729;23;20344;-89
2023/10/28 07:29:53;;;;;;;13.70;9.63;;;15.10;92.70;;;;;;6161192;23;20020;-90
2023/10/28 07:32:19;;;;;;;15.57;10.25;;;15.10;92.70;;;;;;6185815;23;20016;-89
2023/10/28 07:34:44;;;;;;;16.90;10.23;;;15.10;92.60;;;;;;6161503;23;20048;-90
2023/10/28 07:37:10;;;;;;;13.20;8.80;;;15.10;92.60;;;;;;6186198;23;20066;-91
2023/10/28 07:39:35;;;;;;;13.75;8.32;;;15.10;92.60;;;;;;6161607;23;20345;-89
2023/10/28 07:42:02;;;;;;;11.02;8.75;;;15.10;92.60;;;;;;6161162;23;20356;-89
2023/10/28 07:44:28;;;;;;;10.00;7.78;;;15.10;92.60;;;;;;6185751;23;20028;-90
2023/10/28 07:46:54;;;;;;;10.38;8.25;;;15.00;92.60;;;;;;6160814;23;20012;-91
2023/10/28 07:49:19;;;;;;;11.35;8.07;;;15.10;92.60;;;;;;6185894;23;20019;-90
2023/10/28 07:51:46;;;;;;;12.55;8.73;;;15.10;92.60;;;;;;6184961;23;20479;-90
2023/10/28 07:54:11;;;;;;;12.35;7.72;;;15.10;92.60;;;;;;6160784;23;20024;-89
2023/10/28 07:56:37;;;;;;;9.45;6.70;;;15.20;92.50;;;;;;6185912;23;20015;-90
2023/10/28 07:59:03;;;;;;;11.70;8.32;;;15.20;92.40;;;;;;6185655;23;20020;-90
2023/10/28 08:01:32;;;;;;;11.15;7.70;;;15.30;92.40;;;;;;6160694;23;20020;-89
2023/10/28 08:03:57;;;;;;;13.40;7.35;;;15.20;92.40;;;;;;6185212;23;20020;-89
2023/10/28 08:06:27;;;;;;;10.32;7.07;;;15.30;92.30;;;;;;6188012;23;20021;-90
2023/10/28 08:08:53;;;;;;;10.02;6.03;;;15.20;92.40;;;;;;6187328;23;20017;-90
2023/10/28 08:11:20;;;;;;;11.48;7.50;;;15.30;92.40;;;;;;6162185;23;20020;-90
2023/10/28 08:13:47;;;;;;;9.00;6.10;;;15.30;92.40;;;;;;6160448;23;20024;-92
2023/10/28 08:16:20;;;;;;;11.85;7.32;;;15.30;92.40;;;;;;6162588;23;20027;-90
2023/10/28 08:18:47;;;;;;;11.95;6.40;;;15.30;92.40;;;;;;6161416;23;20344;-90
2023/10/28 08:21:16;;;;;;;8.73;5.85;;;15.30;92.30;;;;;;6185592;23;20071;-91
2023/10/28 08:23:43;;;;;;;12.20;6.80;;;15.30;92.30;;;;;;6161962;23;20078;-90
2023/10/28 08:26:10;;;;;;;7.95;5.75;;;15.30;92.30;;;;;;6162633;23;20440;-89
2023/10/28 08:28:35;;;;;;;13.10;6.22;;;15.30;92.30;;;;;;6161161;23;20095;-89
2023/10/28 08:31:02;;;;;;;14.13;6.20;;;15.30;92.30;;;;;;6162138;23;20102;-89
2023/10/28 08:33:28;;;;;;;8.68;6.03;;;15.40;92.30;;;;;;6162061;23;20020;-89
2023/10/28 08:35:56;;;;;;;10.20;5.20;;;15.40;92.30;;;;;;6162793;23;20046;-88
2023/10/28 08:38:22;;;;;;;8.25;5.68;;;15.30;92.30;;;;;;6187815;23;20021;-91
2023/10/28 08:40:48;;;;;;;7.78;5.43;;;15.50;92.30;;;;;;6162390;23;20048;-90
2023/10/28 08:43:14;;;;;;;12.23;5.97;;;15.40;92.20;;;;;;6162356;23;20086;-89
2023/10/28 08:45:45;;;;;;;8.95;5.40;;;15.40;92.30;;;;;;6187613;23;20021;-90
2023/10/28 08:48:15;;;;;;;11.13;6.30;;;15.40;92.20;;;;;;6162027;23;20357;-88
2023/10/28 08:50:43;;;;;;;15.05;6.70;;;15.40;92.30;;;;;;6185974;23;20078;-89
2023/10/28 08:53:11;;;;;;;13.25;6.72;;;15.50;92.50;;;;;;6186823;23;20058;-89
2023/10/28 08:55:37;;;;;;;9.68;5.90;;;15.60;92.30;;;;;;6160901;23;20073;-90
2023/10/28 08:58:09;;;;;;;12.70;6.80;;;15.50;92.20;;;;;;6184889;23;20092;-89
2023/10/28 09:00:38;;;;;;;9.52;6.40;;;15.60;92.30;;;;;;6160665;23;20013;-90
2023/10/28 09:03:04;;;;;;;12.57;7.10;;;15.50;92.20;;;;;;6161363;23;20016;-90
2023/10/28 09:05:30;;;;;;;16.92;7.47;;;15.60;92.30;;;;;;6187651;23;20078;-91
2023/10/28 09:07:56;;;;;;;9.48;6.55;;;15.70;92.30;;;;;;6162433;23;20063;-90
2023/10/28 09:10:22;;;;;;;15.55;8.32;;;15.60;92.20;;;;;;6161167;23;20459;-91
2023/10/28 09:12:51;;;;;;;14.07;7.65;;;15.60;92.20;;;;;;6160211;23;20027;-91
2023/10/28 09:15:17;;;;;;;10.32;6.50;;;15.70;92.20;;;;;;6160479;23;20445;-90
2023/10/28 09:17:43;;;;;;;9.90;6.68;;;15.80;92.10;;;;;;6185602;23;20110;-90
2023/10/28 09:20:11;;;;;;;11.65;6.28;;;15.80;92.10;;;;;;6185213;23;20016;-89
2023/10/28 09:22:43;;;;;;;9.30;6.40;;;15.80;92.10;;;;;;6184963;23;20103;-90
2023/10/28 09:25:10;;;;;;;12.00;6.35;;;15.80;92.10;;;;;;6159544;23;20016;-90
2023/10/28 09:27:37;;;;;;;13.60;6.80;;;15.80;92.10;;;;;;6184617;23;20091;-90
2023/10/28 09:30:07;;;;;;;12.00;7.00;;;15.90;92.00;;;;;;6185184;23;20009;-90
2023/10/28 09:32:34;;;;;;;13.60;6.65;;;15.90;92.00;;;;;;6185642;23;20012;-91
2023/10/28 09:35:06;;;;;;;11.10;6.47;;;15.90;92.00;;;;;;6184527;23;20016;-90
2023/10/28 09:37:40;;;;;;;11.30;6.63;;;15.90;92.20;;;;;;6159699;23;20076;-89
2023/10/28 09:40:07;;;;;;;12.20;6.75;;;16.00;92.00;;;;;;6184921;23;20024;-89
2023/10/28 09:42:35;;;;;;;11.80;5.90;;;16.00;91.90;;;;;;6159965;23;20135;-91
2023/10/28 09:45:04;;;;;;;7.35;5.80;;;16.00;92.00;;;;;;6160149;23;20158;-90
2023/10/28 09:47:41;;;;;;;9.77;5.57;;;16.00;91.90;;;;;;6184165;23;20024;-92
2023/10/28 09:50:10;;;;;;;8.27;5.63;;;15.80;92.10;;;;;;6160436;23;20013;-89
2023/10/28 09:52:39;;;;;;;11.18;6.30;;;15.90;92.00;;;;;;6161540;23;20035;-89
2023/10/28 09:55:09;;;;;;;11.60;6.40;;;15.90;92.00;;;;;;6161636;23;20433;-92
2023/10/28 09:57:35;;;;;;;9.70;5.75;;;15.90;92.00;;;;;;6162616;23;20082;-92
2023/10/28 10:00:09;;;;;;;7.78;6.22;;;15.90;92.00;;;;;;6162463;23;20013;-93
2023/10/28 10:02:59;;;;;;;10.68;6.07;;;15.90;92.10;;;;;;6162509;23;20353;-91
2023/10/28 10:05:41;;;;;;;11.77;7.10;;;15.80;92.20;;;;;;6187711;23;20013;-91
2023/10/28 10:08:21;;;;;;;9.77;6.13;;;15.90;92.20;;;;;;6162148;23;20013;-89
2023/10/28 10:10:56;;;;;;;10.35;6.55;;;15.90;92.20;;;;;;6162730;23;20021;-90
2023/10/28 10:13:22;;;;;;;13.50;6.80;;;16.00;92.00;;;;;;6162385;23;20348;-92
2023/10/28 10:16:35;;;;;;;9.35;6.78;;;16.00;92.00;;;;;;6162060;23;20016;-89
2023/10/28 10:19:10;;;;;;;11.53;6.63;;;16.00;92.20;;;;;;6138445;23;20020;-93
2023/10/28 10:21:36;;;;;;;11.80;6.40;;;16.10;91.90;;;;;;6162202;23;20254;-89
2023/10/28 10:24:06;;;;;;;10.15;6.30;;;16.10;91.90;;;;;;6187403;23;20024;-90
2023/10/28 10:26:34;;;;;;;11.52;6.93;;;16.00;92.00;;;;;;6162097;23;20070;-92
2023/10/28 10:29:03;;;;;;;16.40;9.98;;;16.00;92.10;;;;;;6164162;23;20096;-92
2023/10/28 10:31:40;;;;;;;11.30;7.10;;;15.90;92.10;;;;;;6191404;23;20345;-93
2023/10/28 10:34:09;;;;;;;11.40;6.88;;;15.90;92.20;;;;;;6165056;23;20066;-93
2023/10/28 10:36:44;;;;;;;8.00;5.70;;;16.10;92.00;;;;;;6162233;23;20377;-92
2023/10/28 10:39:18;;;;;;;9.20;6.40;;;16.00;92.10;;;;;;6163366;23;20066;-92
2023/10/28 10:41:52;;;;;;;8.50;6.35;;;16.00;92.00;;;;;;6188093;23;20020;-91
2023/10/28 10:44:32;;;;;;;11.68;6.07;;;16.00;92.00;;;;;;6163044;23;20016;-94
2023/10/28 10:46:58;;;;;;;8.57;5.95;;;16.00;92.10;;;;;;6164526;23;20019;-91
2023/10/28 10:49:24;;;;;;;12.88;6.85;;;16.00;92.00;;;;;;6187922;23;20008;-91
2023/10/28 10:51:50;;;;;;;10.80;6.93;;;16.00;92.10;;;;;;6185422;23;20492;-94
2023/10/28 10:54:17;;;;;;;10.80;6.78;;;16.00;92.10;;;;;;6161357;23;20021;-93
2023/10/28 10:56:44;;;;;;;13.10;7.35;;;16.00;92.20;;;;;;6161522;23;20031;-90
2023/10/28 10:59:10;;;;;;;11.98;7.20;;;16.00;92.20;;;;;;6161406;23;20021;-93
2023/10/28 11:01:37;;;;;;;10.25;6.05;;;16.10;92.20;;;;;;6163024;23;20016;-91
2023/10/28 11:04:04;;;;;;;13.73;7.55;;;16.10;92.10;;;;;;6163379;23;20016;-91
2023/10/28 11:06:30;;;;;;;13.52;7.38;;;16.10;92.20;;;;;;6164242;23;20017;-93
2023/10/28 11:08:56;;;;;;;10.50;7.10;;;16.10;92.20;;;;;;6163141;23;20103;-94
2023/10/28 11:11:22;;;;;;;13.30;7.13;;;16.10;92.20;;;;;;6165343;23;20454;-92
2023/10/28 11:13:48;;;;;;;11.50;7.03;;;16.20;92.40;;;;;;6163379;23;20092;-91
2023/10/28 11:16:22;;;;;;;15.20;8.07;;;16.20;92.10;;;;;;6187682;23;20399;-92
2023/10/28 11:18:49;;;;;;;10.77;7.10;;;16.10;92.20;;;;;;6164588;23;20016;-91
2023/10/28 11:21:15;;;;;;;12.45;7.72;;;16.20;92.10;;;;;;6189159;23;20020;-91
2023/10/28 11:23:41;;;;;;;12.00;7.30;;;16.20;92.20;;;;;;6162925;23;20021;-93
2023/10/28 11:26:07;;;;;;;14.13;8.27;;;16.20;92.20;;;;;;6163256;23;20016;-93
2023/10/28 11:28:34;;;;;;;12.05;8.13;;;16.20;92.20;;;;;;6162584;23;20348;-92
2023/10/28 11:31:00;;;;;;;13.95;8.07;;;16.30;92.10;;;;;;6164068;23;20016;-93
2023/10/28 11:33:26;;;;;;;12.60;7.57;;;16.30;92.10;;;;;;6164086;23;20017;-92
2023/10/28 11:35:53;;;;;;;10.80;7.70;;;16.20;92.10;;;;;;6162760;23;20024;-93
2023/10/28 11:38:19;;;;;;;15.68;8.13;;;16.30;92.20;;;;;;6163039;23;20439;-94
2023/10/28 11:40:45;;;;;;;10.38;7.13;;;16.30;92.20;;;;;;6163141;23;20059;-91
2023/10/28 11:43:18;;;;;;;11.75;7.82;;;16.30;92.10;;;;;;6186718;23;20020;-93
2023/10/28 11:45:44;;;;;;;12.10;7.78;;;16.30;92.20;;;;;;6163114;23;20489;-93
2023/10/28 11:48:09;;;;;;;10.30;7.57;;;16.30;92.20;;;;;;6162624;23;20013;-93
2023/10/28 11:50:35;;;;;;;10.90;7.10;;;16.30;92.20;;;;;;6163120;23;20016;-93
2023/10/28 11:53:02;;;;;;;12.63;7.43;;;16.40;92.20;;;;;;6161495;23;20092;-87
2023/10/28 11:55:27;;;;;;;10.63;7.25;;;16.40;92.20;;;;;;6185825;23;20022;-87
2023/10/28 11:57:54;;;;;;;10.40;6.70;;;16.50;92.30;;;;;;6187080;23;20088;-88
2023/10/28 12:00:20;;;;;;;12.18;7.60;;;16.40;92.30;;;;;;6212915;23;20066;-87
2023/10/28 12:02:45;;;;;;;10.90;7.50;;;16.40;92.30;;;;;;6186498;23;20067;-88
2023/10/28 12:05:12;;;;;;;10.48;7.10;;;16.50;92.30;;;;;;6186896;23;20020;-88
2023/10/28 12:07:37;;;;;;;10.00;6.63;;;16.50;92.30;;;;;;6187118;23;20337;-87
2023/10/28 12:10:06;;;;;;;10.15;6.85;;;16.60;92.30;;;;;;6188352;23;20024;-88
2023/10/28 12:12:32;;;;;;;9.65;6.28;;;16.70;92.20;;;;;;6186763;23;20016;-86
2023/10/28 12:14:57;;;;;;;9.43;6.05;;;16.70;92.00;;;;;;6213366;23;20411;-86
2023/10/28 12:17:23;;;;;;;9.35;5.70;;;16.80;92.00;;;;;;6216343;23;20103;-89
2023/10/28 12:19:49;;;;;;;8.95;5.85;;;16.80;92.10;;;;;;6188597;23;20009;-86
2023/10/28 12:22:14;;;;;;;9.10;5.00;;;16.90;92.10;;;;;;6214178;23;20023;-84
2023/10/28 12:24:40;;;;;;;9.25;5.38;;;16.90;92.00;;;;;;6186217;23;20016;-85
2023/10/28 12:27:05;;;;;;;7.75;4.97;;;16.90;91.90;;;;;;6186926;23;20070;-86
2023/10/28 12:29:31;;;;;;;9.95;5.28;;;16.90;91.90;;;;;;6187100;23;20048;-85
2023/10/28 12:31:57;;;;;;;9.85;4.57;;;17.00;91.90;;;;;;6186059;23;20504;-86